sensor_id;sensor_type;location;lat;lon;timestamp;pressure;altitude;pressure_sealevel;temperature
34807;BMP180;18310;55.586;12.286;2022-09-06T00:01:21;102718.00;;;24.40
34807;BMP180;18310;55.586;12.286;2022-09-06T00:04:25;102709.00;;;24.40
34807;BMP180;18310;55.586;12.286;2022-09-06T00:07:29;102728.00;;;24.40
34807;BMP180;18310;55.586;12.286;2022-09-06T00:10:32;102721.00;;;24.40
34807;BMP180;18310;55.586;12.286;2022-09-06T00:13:36;102722.00;;;24.40
34807;BMP180;18310;55.586;12.286;2022-09-06T00:16:41;102718.00;;;24.40
34807;BMP180;18310;55.586;12.286;2022-09-06T00:19:44;102716.00;;;24.40
34807;BMP180;18310;55.586;12.286;2022-09-06T00:22:47;102709.00;;;24.30
34807;BMP180;18310;55.586;12.286;2022-09-06T00:25:50;102712.00;;;24.30
34807;BMP180;18310;55.586;12.286;2022-09-06T00:28:53;102727.00;;;24.30
34807;BMP180;18310;55.586;12.286;2022-09-06T00:31:58;102720.00;;;24.30
34807;BMP180;18310;55.586;12.286;2022-09-06T00:35:02;102712.00;;;24.30
34807;BMP180;18310;55.586;12.286;2022-09-06T00:38:07;102717.00;;;24.30
34807;BMP180;18310;55.586;12.286;2022-09-06T00:41:13;102711.00;;;24.30
34807;BMP180;18310;55.586;12.286;2022-09-06T00:44:16;102710.00;;;24.30
34807;BMP180;18310;55.586;12.286;2022-09-06T00:47:21;102709.00;;;24.30
34807;BMP180;18310;55.586;12.286;2022-09-06T00:50:25;102708.00;;;24.30
34807;BMP180;18310;55.586;12.286;2022-09-06T00:53:29;102705.00;;;24.30
34807;BMP180;18310;55.586;12.286;2022-09-06T00:56:38;102706.00;;;24.30
34807;BMP180;18310;55.586;12.286;2022-09-06T00:59:45;102703.00;;;24.30
34807;BMP180;18310;55.586;12.286;2022-09-06T01:02:50;102710.00;;;24.20
34807;BMP180;18310;55.586;12.286;2022-09-06T01:06:08;102696.00;;;24.30
34807;BMP180;18310;55.586;12.286;2022-09-06T01:09:31;102694.00;;;24.30
34807;BMP180;18310;55.586;12.286;2022-09-06T01:12:49;102697.00;;;24.30
34807;BMP180;18310;55.586;12.286;2022-09-06T01:16:02;102696.00;;;24.30
34807;BMP180;18310;55.586;12.286;2022-09-06T01:23:58;102694.00;;;24.30
34807;BMP180;18310;55.586;12.286;2022-09-06T01:27:34;102693.00;;;24.20
34807;BMP180;18310;55.586;12.286;2022-09-06T01:30:50;102686.00;;;24.20
34807;BMP180;18310;55.586;12.286;2022-09-06T01:34:18;102689.00;;;24.20
34807;BMP180;18310;55.586;12.286;2022-09-06T01:37:23;102683.00;;;24.20
34807;BMP180;18310;55.586;12.286;2022-09-06T01:40:27;102684.00;;;24.20
34807;BMP180;18310;55.586;12.286;2022-09-06T01:43:37;102691.00;;;24.30
34807;BMP180;18310;55.586;12.286;2022-09-06T01:46:53;102700.00;;;24.30
34807;BMP180;18310;55.586;12.286;2022-09-06T01:50:26;102683.00;;;24.30
34807;BMP180;18310;55.586;12.286;2022-09-06T01:57:30;102699.00;;;24.30
34807;BMP180;18310;55.586;12.286;2022-09-06T02:00:45;102699.00;;;24.30
34807;BMP180;18310;55.586;12.286;2022-09-06T02:03:56;102702.00;;;24.30
34807;BMP180;18310;55.586;12.286;2022-09-06T02:07:11;102701.00;;;24.30
34807;BMP180;18310;55.586;12.286;2022-09-06T02:10:22;102686.00;;;24.30
34807;BMP180;18310;55.586;12.286;2022-09-06T02:13:32;102680.00;;;24.30
34807;BMP180;18310;55.586;12.286;2022-09-06T02:16:43;102669.00;;;24.30
34807;BMP180;18310;55.586;12.286;2022-09-06T02:19:51;102688.00;;;24.30
34807;BMP180;18310;55.586;12.286;2022-09-06T02:22:59;102688.00;;;24.30
34807;BMP180;18310;55.586;12.286;2022-09-06T02:26:08;102684.00;;;24.30
34807;BMP180;18310;55.586;12.286;2022-09-06T02:29:13;102669.00;;;24.30
34807;BMP180;18310;55.586;12.286;2022-09-06T02:32:22;102688.00;;;24.30
34807;BMP180;18310;55.586;12.286;2022-09-06T02:35:26;102677.00;;;24.30
34807;BMP180;18310;55.586;12.286;2022-09-06T02:38:31;102681.00;;;24.30
34807;BMP180;18310;55.586;12.286;2022-09-06T02:41:36;102687.00;;;24.20
34807;BMP180;18310;55.586;12.286;2022-09-06T02:44:40;102681.00;;;24.20
34807;BMP180;18310;55.586;12.286;2022-09-06T02:47:45;102690.00;;;24.20
34807;BMP180;18310;55.586;12.286;2022-09-06T02:50:48;102689.00;;;24.20
34807;BMP180;18310;55.586;12.286;2022-09-06T02:53:51;102686.00;;;24.20
34807;BMP180;18310;55.586;12.286;2022-09-06T02:56:55;102679.00;;;24.20
34807;BMP180;18310;55.586;12.286;2022-09-06T02:59:58;102678.00;;;24.20
34807;BMP180;18310;55.586;12.286;2022-09-06T03:03:03;102681.00;;;24.20
34807;BMP180;18310;55.586;12.286;2022-09-06T03:06:06;102681.00;;;24.20
34807;BMP180;18310;55.586;12.286;2022-09-06T03:09:09;102675.00;;;24.20
34807;BMP180;18310;55.586;12.286;2022-09-06T03:12:13;102665.00;;;24.20
34807;BMP180;18310;55.586;12.286;2022-09-06T03:15:16;102668.00;;;24.20
34807;BMP180;18310;55.586;12.286;2022-09-06T03:18:21;102669.00;;;24.20
34807;BMP180;18310;55.586;12.286;2022-09-06T03:21:24;102668.00;;;24.20
34807;BMP180;18310;55.586;12.286;2022-09-06T03:24:28;102663.00;;;24.20
34807;BMP180;18310;55.586;12.286;2022-09-06T03:27:31;102655.00;;;24.20
34807;BMP180;18310;55.586;12.286;2022-09-06T03:30:34;102656.00;;;24.20
34807;BMP180;18310;55.586;12.286;2022-09-06T03:33:39;102651.00;;;24.10
34807;BMP180;18310;55.586;12.286;2022-09-06T03:36:42;102650.00;;;24.10
34807;BMP180;18310;55.586;12.286;2022-09-06T03:39:45;102659.00;;;24.10
34807;BMP180;18310;55.586;12.286;2022-09-06T03:42:49;102658.00;;;24.10
34807;BMP180;18310;55.586;12.286;2022-09-06T03:45:54;102647.00;;;24.10
34807;BMP180;18310;55.586;12.286;2022-09-06T03:48:59;102649.00;;;24.10
34807;BMP180;18310;55.586;12.286;2022-09-06T03:52:03;102644.00;;;24.10
34807;BMP180;18310;55.586;12.286;2022-09-06T03:55:07;102649.00;;;24.10
34807;BMP180;18310;55.586;12.286;2022-09-06T03:58:13;102633.00;;;24.10
34807;BMP180;18310;55.586;12.286;2022-09-06T04:01:17;102628.00;;;24.10
34807;BMP180;18310;55.586;12.286;2022-09-06T04:04:22;102643.00;;;24.10
34807;BMP180;18310;55.586;12.286;2022-09-06T04:07:25;102634.00;;;24.10
34807;BMP180;18310;55.586;12.286;2022-09-06T04:10:28;102628.00;;;24.10
34807;BMP180;18310;55.586;12.286;2022-09-06T04:13:34;102625.00;;;24.10
34807;BMP180;18310;55.586;12.286;2022-09-06T04:16:37;102640.00;;;24.10
34807;BMP180;18310;55.586;12.286;2022-09-06T04:19:43;102630.00;;;24.20
34807;BMP180;18310;55.586;12.286;2022-09-06T04:22:46;102621.00;;;24.20
34807;BMP180;18310;55.586;12.286;2022-09-06T04:25:54;102630.00;;;24.20
34807;BMP180;18310;55.586;12.286;2022-09-06T04:28:59;102624.00;;;24.20
34807;BMP180;18310;55.586;12.286;2022-09-06T04:32:03;102618.00;;;24.20
34807;BMP180;18310;55.586;12.286;2022-09-06T04:35:09;102625.00;;;24.30
34807;BMP180;18310;55.586;12.286;2022-09-06T04:38:12;102612.00;;;24.30
34807;BMP180;18310;55.586;12.286;2022-09-06T04:41:16;102623.00;;;24.30
34807;BMP180;18310;55.586;12.286;2022-09-06T04:44:20;102618.00;;;24.30
34807;BMP180;18310;55.586;12.286;2022-09-06T04:47:24;102617.00;;;24.40
34807;BMP180;18310;55.586;12.286;2022-09-06T04:50:29;102630.00;;;24.40
34807;BMP180;18310;55.586;12.286;2022-09-06T04:53:32;102606.00;;;24.40
34807;BMP180;18310;55.586;12.286;2022-09-06T04:56:35;102613.00;;;24.40
34807;BMP180;18310;55.586;12.286;2022-09-06T04:59:38;102634.00;;;24.50
34807;BMP180;18310;55.586;12.286;2022-09-06T05:02:42;102623.00;;;24.50
34807;BMP180;18310;55.586;12.286;2022-09-06T05:05:47;102626.00;;;24.50
34807;BMP180;18310;55.586;12.286;2022-09-06T05:08:50;102613.00;;;24.60
34807;BMP180;18310;55.586;12.286;2022-09-06T05:11:54;102614.00;;;24.60
34807;BMP180;18310;55.586;12.286;2022-09-06T05:14:57;102612.00;;;24.70
34807;BMP180;18310;55.586;12.286;2022-09-06T05:18:01;102610.00;;;24.90
34807;BMP180;18310;55.586;12.286;2022-09-06T05:21:07;102612.00;;;25.30
34807;BMP180;18310;55.586;12.286;2022-09-06T05:24:10;102616.00;;;25.60
34807;BMP180;18310;55.586;12.286;2022-09-06T05:27:13;102625.00;;;25.80
34807;BMP180;18310;55.586;12.286;2022-09-06T05:30:17;102627.00;;;25.80
34807;BMP180;18310;55.586;12.286;2022-09-06T05:33:21;102614.00;;;25.70
34807;BMP180;18310;55.586;12.286;2022-09-06T05:36:29;102626.00;;;25.70
34807;BMP180;18310;55.586;12.286;2022-09-06T05:39:34;102621.00;;;25.60
34807;BMP180;18310;55.586;12.286;2022-09-06T05:42:37;102626.00;;;25.70
34807;BMP180;18310;55.586;12.286;2022-09-06T05:45:41;102620.00;;;25.80
34807;BMP180;18310;55.586;12.286;2022-09-06T05:48:52;102626.00;;;26.10
34807;BMP180;18310;55.586;12.286;2022-09-06T05:51:57;102628.00;;;26.30
34807;BMP180;18310;55.586;12.286;2022-09-06T05:55:00;102635.00;;;26.40
34807;BMP180;18310;55.586;12.286;2022-09-06T05:58:04;102613.00;;;26.40
34807;BMP180;18310;55.586;12.286;2022-09-06T06:01:14;102610.00;;;26.50
34807;BMP180;18310;55.586;12.286;2022-09-06T06:04:19;102623.00;;;26.50
34807;BMP180;18310;55.586;12.286;2022-09-06T06:07:24;102625.00;;;26.50
34807;BMP180;18310;55.586;12.286;2022-09-06T06:10:27;102622.00;;;26.70
34807;BMP180;18310;55.586;12.286;2022-09-06T06:13:31;102622.00;;;27.10
34807;BMP180;18310;55.586;12.286;2022-09-06T06:16:40;102626.00;;;27.60
34807;BMP180;18310;55.586;12.286;2022-09-06T06:19:43;102628.00;;;27.90
34807;BMP180;18310;55.586;12.286;2022-09-06T06:22:48;102623.00;;;28.40
34807;BMP180;18310;55.586;12.286;2022-09-06T06:25:52;102628.00;;;28.90
34807;BMP180;18310;55.586;12.286;2022-09-06T06:28:57;102613.00;;;29.30
34807;BMP180;18310;55.586;12.286;2022-09-06T06:32:03;102630.00;;;29.60
34807;BMP180;18310;55.586;12.286;2022-09-06T06:35:08;102618.00;;;29.70
34807;BMP180;18310;55.586;12.286;2022-09-06T06:38:17;102648.00;;;29.90
34807;BMP180;18310;55.586;12.286;2022-09-06T06:41:23;102632.00;;;29.90
34807;BMP180;18310;55.586;12.286;2022-09-06T06:44:28;102623.00;;;30.20
34807;BMP180;18310;55.586;12.286;2022-09-06T06:47:34;102628.00;;;30.60
34807;BMP180;18310;55.586;12.286;2022-09-06T06:50:38;102625.00;;;30.80
34807;BMP180;18310;55.586;12.286;2022-09-06T06:53:44;102634.00;;;30.70
34807;BMP180;18310;55.586;12.286;2022-09-06T06:56:48;102632.00;;;30.50
34807;BMP180;18310;55.586;12.286;2022-09-06T06:59:52;102634.00;;;30.60
34807;BMP180;18310;55.586;12.286;2022-09-06T07:02:55;102634.00;;;30.70
34807;BMP180;18310;55.586;12.286;2022-09-06T07:05:58;102640.00;;;30.80
34807;BMP180;18310;55.586;12.286;2022-09-06T07:09:10;102642.00;;;31.00
34807;BMP180;18310;55.586;12.286;2022-09-06T07:12:13;102642.00;;;31.00
34807;BMP180;18310;55.586;12.286;2022-09-06T07:15:16;102642.00;;;31.10
34807;BMP180;18310;55.586;12.286;2022-09-06T07:18:21;102638.00;;;31.10
34807;BMP180;18310;55.586;12.286;2022-09-06T07:21:28;102646.00;;;30.90
34807;BMP180;18310;55.586;12.286;2022-09-06T07:24:44;102625.00;;;30.30
34807;BMP180;18310;55.586;12.286;2022-09-06T07:27:55;102640.00;;;29.60
34807;BMP180;18310;55.586;12.286;2022-09-06T07:31:18;102625.00;;;29.00
34807;BMP180;18310;55.586;12.286;2022-09-06T07:34:46;102632.00;;;28.50
34807;BMP180;18310;55.586;12.286;2022-09-06T07:37:55;102633.00;;;28.10
34807;BMP180;18310;55.586;12.286;2022-09-06T07:41:03;102630.00;;;27.90
34807;BMP180;18310;55.586;12.286;2022-09-06T07:44:22;102631.00;;;27.70
34807;BMP180;18310;55.586;12.286;2022-09-06T07:47:31;102641.00;;;27.50
34807;BMP180;18310;55.586;12.286;2022-09-06T07:51:02;102630.00;;;27.30
34807;BMP180;18310;55.586;12.286;2022-09-06T07:54:06;102631.00;;;27.20
34807;BMP180;18310;55.586;12.286;2022-09-06T07:57:33;102630.00;;;27.20
34807;BMP180;18310;55.586;12.286;2022-09-06T08:00:37;102625.00;;;27.10
34807;BMP180;18310;55.586;12.286;2022-09-06T08:03:43;102618.00;;;27.10
34807;BMP180;18310;55.586;12.286;2022-09-06T08:06:48;102615.00;;;27.10
34807;BMP180;18310;55.586;12.286;2022-09-06T08:10:15;102620.00;;;27.20
34807;BMP180;18310;55.586;12.286;2022-09-06T08:13:24;102621.00;;;27.30
34807;BMP180;18310;55.586;12.286;2022-09-06T08:16:31;102619.00;;;27.60
34807;BMP180;18310;55.586;12.286;2022-09-06T08:19:45;102624.00;;;27.80
34807;BMP180;18310;55.586;12.286;2022-09-06T08:22:52;102620.00;;;27.80
34807;BMP180;18310;55.586;12.286;2022-09-06T08:25:56;102619.00;;;27.80
34807;BMP180;18310;55.586;12.286;2022-09-06T08:29:04;102610.00;;;27.90
34807;BMP180;18310;55.586;12.286;2022-09-06T08:32:09;102611.00;;;28.00
34807;BMP180;18310;55.586;12.286;2022-09-06T08:35:16;102597.00;;;28.10
34807;BMP180;18310;55.586;12.286;2022-09-06T08:38:21;102609.00;;;28.20
34807;BMP180;18310;55.586;12.286;2022-09-06T08:41:26;102603.00;;;28.20
34807;BMP180;18310;55.586;12.286;2022-09-06T08:44:37;102603.00;;;28.10
34807;BMP180;18310;55.586;12.286;2022-09-06T08:48:00;102595.00;;;28.10
34807;BMP180;18310;55.586;12.286;2022-09-06T08:51:27;102592.00;;;28.10
34807;BMP180;18310;55.586;12.286;2022-09-06T08:54:45;102591.00;;;28.00
34807;BMP180;18310;55.586;12.286;2022-09-06T09:02:02;102589.00;;;27.90
34807;BMP180;18310;55.586;12.286;2022-09-06T09:05:19;102585.00;;;27.90
34807;BMP180;18310;55.586;12.286;2022-09-06T09:08:28;102588.00;;;27.90
34807;BMP180;18310;55.586;12.286;2022-09-06T09:11:35;102585.00;;;27.90
34807;BMP180;18310;55.586;12.286;2022-09-06T09:14:40;102586.00;;;27.90
34807;BMP180;18310;55.586;12.286;2022-09-06T09:17:48;102580.00;;;28.00
34807;BMP180;18310;55.586;12.286;2022-09-06T09:20:52;102585.00;;;28.10
34807;BMP180;18310;55.586;12.286;2022-09-06T09:23:57;102578.00;;;28.00
34807;BMP180;18310;55.586;12.286;2022-09-06T09:27:06;102587.00;;;28.00
34807;BMP180;18310;55.586;12.286;2022-09-06T09:30:13;102576.00;;;28.00
34807;BMP180;18310;55.586;12.286;2022-09-06T09:33:39;102564.00;;;28.00
34807;BMP180;18310;55.586;12.286;2022-09-06T09:36:42;102569.00;;;27.90
34807;BMP180;18310;55.586;12.286;2022-09-06T09:40:16;102563.00;;;27.90
34807;BMP180;18310;55.586;12.286;2022-09-06T09:43:23;102555.00;;;27.90
34807;BMP180;18310;55.586;12.286;2022-09-06T09:46:30;102549.00;;;28.00
34807;BMP180;18310;55.586;12.286;2022-09-06T09:49:36;102556.00;;;28.00
34807;BMP180;18310;55.586;12.286;2022-09-06T09:52:43;102550.00;;;28.10
34807;BMP180;18310;55.586;12.286;2022-09-06T09:55:55;102546.00;;;28.10
34807;BMP180;18310;55.586;12.286;2022-09-06T09:59:16;102540.00;;;28.10
34807;BMP180;18310;55.586;12.286;2022-09-06T10:02:26;102527.00;;;28.00
34807;BMP180;18310;55.586;12.286;2022-09-06T10:05:32;102533.00;;;28.00
34807;BMP180;18310;55.586;12.286;2022-09-06T10:08:40;102529.00;;;28.00
34807;BMP180;18310;55.586;12.286;2022-09-06T10:11:53;102535.00;;;28.00
34807;BMP180;18310;55.586;12.286;2022-09-06T10:14:59;102534.00;;;28.00
34807;BMP180;18310;55.586;12.286;2022-09-06T10:18:16;102538.00;;;27.90
34807;BMP180;18310;55.586;12.286;2022-09-06T10:21:22;102531.00;;;27.90
34807;BMP180;18310;55.586;12.286;2022-09-06T10:24:43;102522.00;;;27.90
34807;BMP180;18310;55.586;12.286;2022-09-06T10:28:26;102526.00;;;28.00
34807;BMP180;18310;55.586;12.286;2022-09-06T10:31:50;102536.00;;;28.00
34807;BMP180;18310;55.586;12.286;2022-09-06T10:35:08;102536.00;;;28.00
34807;BMP180;18310;55.586;12.286;2022-09-06T10:38:31;102538.00;;;28.10
34807;BMP180;18310;55.586;12.286;2022-09-06T10:41:56;102519.00;;;28.00
34807;BMP180;18310;55.586;12.286;2022-09-06T10:45:37;102523.00;;;28.00
34807;BMP180;18310;55.586;12.286;2022-09-06T10:48:47;102529.00;;;28.00
34807;BMP180;18310;55.586;12.286;2022-09-06T10:51:56;102523.00;;;28.00
34807;BMP180;18310;55.586;12.286;2022-09-06T10:55:15;102523.00;;;28.00
34807;BMP180;18310;55.586;12.286;2022-09-06T10:58:25;102529.00;;;27.90
34807;BMP180;18310;55.586;12.286;2022-09-06T11:01:36;102530.00;;;27.90
34807;BMP180;18310;55.586;12.286;2022-09-06T11:04:44;102529.00;;;27.90
34807;BMP180;18310;55.586;12.286;2022-09-06T11:08:21;102534.00;;;27.90
34807;BMP180;18310;55.586;12.286;2022-09-06T11:11:55;102531.00;;;27.90
34807;BMP180;18310;55.586;12.286;2022-09-06T11:15:05;102535.00;;;27.90
34807;BMP180;18310;55.586;12.286;2022-09-06T11:18:17;102530.00;;;28.00
34807;BMP180;18310;55.586;12.286;2022-09-06T11:25:51;102527.00;;;28.00
34807;BMP180;18310;55.586;12.286;2022-09-06T11:29:03;102519.00;;;28.00
34807;BMP180;18310;55.586;12.286;2022-09-06T11:32:32;102514.00;;;28.00
34807;BMP180;18310;55.586;12.286;2022-09-06T11:35:39;102520.00;;;27.90
34807;BMP180;18310;55.586;12.286;2022-09-06T11:38:54;102508.00;;;27.90
34807;BMP180;18310;55.586;12.286;2022-09-06T11:41:58;102501.00;;;27.90
34807;BMP180;18310;55.586;12.286;2022-09-06T11:45:20;102516.00;;;28.00
34807;BMP180;18310;55.586;12.286;2022-09-06T11:48:59;102502.00;;;28.00
34807;BMP180;18310;55.586;12.286;2022-09-06T11:52:58;102500.00;;;28.00
34807;BMP180;18310;55.586;12.286;2022-09-06T11:56:29;102503.00;;;28.00
34807;BMP180;18310;55.586;12.286;2022-09-06T11:59:40;102509.00;;;28.00
34807;BMP180;18310;55.586;12.286;2022-09-06T12:02:48;102501.00;;;28.00
34807;BMP180;18310;55.586;12.286;2022-09-06T12:06:16;102497.00;;;28.10
34807;BMP180;18310;55.586;12.286;2022-09-06T12:09:36;102487.00;;;28.10
34807;BMP180;18310;55.586;12.286;2022-09-06T12:12:43;102486.00;;;28.00
34807;BMP180;18310;55.586;12.286;2022-09-06T12:15:53;102492.00;;;28.00
34807;BMP180;18310;55.586;12.286;2022-09-06T12:19:00;102481.00;;;28.00
34807;BMP180;18310;55.586;12.286;2022-09-06T12:23:01;102487.00;;;28.10
34807;BMP180;18310;55.586;12.286;2022-09-06T12:26:06;102479.00;;;28.10
34807;BMP180;18310;55.586;12.286;2022-09-06T12:29:10;102485.00;;;28.10
34807;BMP180;18310;55.586;12.286;2022-09-06T12:32:21;102475.00;;;28.10
34807;BMP180;18310;55.586;12.286;2022-09-06T12:35:28;102472.00;;;28.10
34807;BMP180;18310;55.586;12.286;2022-09-06T12:39:00;102479.00;;;28.10
34807;BMP180;18310;55.586;12.286;2022-09-06T12:42:09;102465.00;;;28.10
34807;BMP180;18310;55.586;12.286;2022-09-06T12:45:19;102456.00;;;28.00
34807;BMP180;18310;55.586;12.286;2022-09-06T12:48:31;102465.00;;;27.90
34807;BMP180;18310;55.586;12.286;2022-09-06T12:51:39;102461.00;;;27.80
34807;BMP180;18310;55.586;12.286;2022-09-06T12:54:46;102453.00;;;27.80
34807;BMP180;18310;55.586;12.286;2022-09-06T12:57:53;102443.00;;;27.80
34807;BMP180;18310;55.586;12.286;2022-09-06T13:01:05;102438.00;;;27.90
34807;BMP180;18310;55.586;12.286;2022-09-06T13:04:19;102436.00;;;28.00
34807;BMP180;18310;55.586;12.286;2022-09-06T13:07:25;102450.00;;;28.00
34807;BMP180;18310;55.586;12.286;2022-09-06T13:10:31;102442.00;;;27.90
34807;BMP180;18310;55.586;12.286;2022-09-06T13:13:35;102438.00;;;27.80
34807;BMP180;18310;55.586;12.286;2022-09-06T13:16:45;102431.00;;;27.80
34807;BMP180;18310;55.586;12.286;2022-09-06T13:19:49;102439.00;;;27.70
34807;BMP180;18310;55.586;12.286;2022-09-06T13:23:04;102433.00;;;27.70
34807;BMP180;18310;55.586;12.286;2022-09-06T13:26:10;102432.00;;;27.70
34807;BMP180;18310;55.586;12.286;2022-09-06T13:29:24;102429.00;;;27.70
34807;BMP180;18310;55.586;12.286;2022-09-06T13:32:32;102427.00;;;27.60
34807;BMP180;18310;55.586;12.286;2022-09-06T13:35:37;102413.00;;;27.60
34807;BMP180;18310;55.586;12.286;2022-09-06T13:38:41;102409.00;;;27.60
34807;BMP180;18310;55.586;12.286;2022-09-06T13:41:54;102410.00;;;27.70
34807;BMP180;18310;55.586;12.286;2022-09-06T13:45:16;102412.00;;;27.70
34807;BMP180;18310;55.586;12.286;2022-09-06T13:48:21;102405.00;;;27.60
34807;BMP180;18310;55.586;12.286;2022-09-06T13:51:30;102401.00;;;27.60
34807;BMP180;18310;55.586;12.286;2022-09-06T13:54:35;102397.00;;;27.60
34807;BMP180;18310;55.586;12.286;2022-09-06T13:57:40;102401.00;;;27.60
34807;BMP180;18310;55.586;12.286;2022-09-06T14:00:43;102396.00;;;27.60
34807;BMP180;18310;55.586;12.286;2022-09-06T14:03:49;102405.00;;;27.60
34807;BMP180;18310;55.586;12.286;2022-09-06T14:06:53;102389.00;;;27.60
34807;BMP180;18310;55.586;12.286;2022-09-06T14:09:56;102389.00;;;27.60
34807;BMP180;18310;55.586;12.286;2022-09-06T14:13:02;102382.00;;;27.50
34807;BMP180;18310;55.586;12.286;2022-09-06T14:16:07;102382.00;;;27.50
34807;BMP180;18310;55.586;12.286;2022-09-06T14:19:11;102366.00;;;27.50
34807;BMP180;18310;55.586;12.286;2022-09-06T14:22:14;102374.00;;;27.50
34807;BMP180;18310;55.586;12.286;2022-09-06T14:25:18;102375.00;;;27.40
34807;BMP180;18310;55.586;12.286;2022-09-06T14:28:22;102361.00;;;27.40
34807;BMP180;18310;55.586;12.286;2022-09-06T14:31:28;102361.00;;;27.60
34807;BMP180;18310;55.586;12.286;2022-09-06T14:34:33;102359.00;;;27.60
34807;BMP180;18310;55.586;12.286;2022-09-06T14:37:37;102358.00;;;27.70
34807;BMP180;18310;55.586;12.286;2022-09-06T14:40:41;102360.00;;;27.80
34807;BMP180;18310;55.586;12.286;2022-09-06T14:43:51;102359.00;;;27.90
34807;BMP180;18310;55.586;12.286;2022-09-06T14:46:55;102357.00;;;27.90
34807;BMP180;18310;55.586;12.286;2022-09-06T14:49:59;102347.00;;;27.90
34807;BMP180;18310;55.586;12.286;2022-09-06T14:53:03;102355.00;;;27.70
34807;BMP180;18310;55.586;12.286;2022-09-06T14:56:25;102345.00;;;27.70
34807;BMP180;18310;55.586;12.286;2022-09-06T14:59:30;102341.00;;;27.70
34807;BMP180;18310;55.586;12.286;2022-09-06T15:02:35;102335.00;;;27.60
34807;BMP180;18310;55.586;12.286;2022-09-06T15:05:38;102339.00;;;27.50
34807;BMP180;18310;55.586;12.286;2022-09-06T15:08:43;102334.00;;;27.50
34807;BMP180;18310;55.586;12.286;2022-09-06T15:11:49;102324.00;;;27.40
34807;BMP180;18310;55.586;12.286;2022-09-06T15:14:53;102328.00;;;27.40
34807;BMP180;18310;55.586;12.286;2022-09-06T15:17:57;102329.00;;;27.40
34807;BMP180;18310;55.586;12.286;2022-09-06T15:21:08;102329.00;;;27.50
34807;BMP180;18310;55.586;12.286;2022-09-06T15:24:12;102328.00;;;27.40
34807;BMP180;18310;55.586;12.286;2022-09-06T15:27:16;102322.00;;;27.40
34807;BMP180;18310;55.586;12.286;2022-09-06T15:30:21;102328.00;;;27.40
34807;BMP180;18310;55.586;12.286;2022-09-06T15:33:28;102327.00;;;27.40
34807;BMP180;18310;55.586;12.286;2022-09-06T15:36:31;102318.00;;;27.40
34807;BMP180;18310;55.586;12.286;2022-09-06T15:39:35;102318.00;;;27.40
34807;BMP180;18310;55.586;12.286;2022-09-06T15:42:38;102317.00;;;27.40
34807;BMP180;18310;55.586;12.286;2022-09-06T15:45:48;102308.00;;;27.40
34807;BMP180;18310;55.586;12.286;2022-09-06T15:48:51;102308.00;;;27.30
34807;BMP180;18310;55.586;12.286;2022-09-06T15:51:56;102311.00;;;27.20
34807;BMP180;18310;55.586;12.286;2022-09-06T15:55:00;102310.00;;;27.10
34807;BMP180;18310;55.586;12.286;2022-09-06T15:58:21;102302.00;;;27.00
34807;BMP180;18310;55.586;12.286;2022-09-06T16:01:27;102294.00;;;26.80
34807;BMP180;18310;55.586;12.286;2022-09-06T16:04:30;102290.00;;;26.70
34807;BMP180;18310;55.586;12.286;2022-09-06T16:07:34;102294.00;;;26.60
34807;BMP180;18310;55.586;12.286;2022-09-06T16:10:41;102288.00;;;26.50
34807;BMP180;18310;55.586;12.286;2022-09-06T16:13:45;102288.00;;;26.40
34807;BMP180;18310;55.586;12.286;2022-09-06T16:16:50;102284.00;;;26.40
34807;BMP180;18310;55.586;12.286;2022-09-06T16:19:55;102280.00;;;26.30
34807;BMP180;18310;55.586;12.286;2022-09-06T16:23:00;102272.00;;;26.30
34807;BMP180;18310;55.586;12.286;2022-09-06T16:26:04;102277.00;;;26.20
34807;BMP180;18310;55.586;12.286;2022-09-06T16:29:10;102278.00;;;26.20
34807;BMP180;18310;55.586;12.286;2022-09-06T16:32:15;102286.00;;;26.10
34807;BMP180;18310;55.586;12.286;2022-09-06T16:35:18;102277.00;;;26.10
34807;BMP180;18310;55.586;12.286;2022-09-06T16:38:21;102266.00;;;26.00
34807;BMP180;18310;55.586;12.286;2022-09-06T16:41:29;102269.00;;;26.00
34807;BMP180;18310;55.586;12.286;2022-09-06T16:44:37;102258.00;;;26.00
34807;BMP180;18310;55.586;12.286;2022-09-06T16:47:42;102255.00;;;26.00
34807;BMP180;18310;55.586;12.286;2022-09-06T16:50:47;102251.00;;;25.90
34807;BMP180;18310;55.586;12.286;2022-09-06T16:53:51;102248.00;;;25.90
34807;BMP180;18310;55.586;12.286;2022-09-06T16:56:55;102253.00;;;25.80
34807;BMP180;18310;55.586;12.286;2022-09-06T16:59:59;102253.00;;;25.80
34807;BMP180;18310;55.586;12.286;2022-09-06T17:03:04;102236.00;;;25.80
34807;BMP180;18310;55.586;12.286;2022-09-06T17:06:07;102235.00;;;25.80
34807;BMP180;18310;55.586;12.286;2022-09-06T17:09:12;102233.00;;;25.80
34807;BMP180;18310;55.586;12.286;2022-09-06T17:12:15;102236.00;;;25.70
34807;BMP180;18310;55.586;12.286;2022-09-06T17:15:19;102242.00;;;25.70
34807;BMP180;18310;55.586;12.286;2022-09-06T17:18:24;102239.00;;;25.70
34807;BMP180;18310;55.586;12.286;2022-09-06T17:21:28;102242.00;;;25.70
34807;BMP180;18310;55.586;12.286;2022-09-06T17:24:31;102226.00;;;25.60
34807;BMP180;18310;55.586;12.286;2022-09-06T17:27:35;102233.00;;;25.60
34807;BMP180;18310;55.586;12.286;2022-09-06T17:30:38;102232.00;;;25.50
34807;BMP180;18310;55.586;12.286;2022-09-06T17:33:46;102239.00;;;25.50
34807;BMP180;18310;55.586;12.286;2022-09-06T17:36:50;102233.00;;;25.50
34807;BMP180;18310;55.586;12.286;2022-09-06T17:39:53;102234.00;;;25.50
34807;BMP180;18310;55.586;12.286;2022-09-06T17:42:57;102234.00;;;25.40
34807;BMP180;18310;55.586;12.286;2022-09-06T17:46:00;102227.00;;;25.40
34807;BMP180;18310;55.586;12.286;2022-09-06T17:49:25;102226.00;;;25.40
34807;BMP180;18310;55.586;12.286;2022-09-06T17:52:39;102227.00;;;25.30